Time;durP1;ratioP1;P1;durP2;ratioP2;P2;SDS_P1;SDS_P2;PMS_P1;PMS_P2;Temp;Humidity;BMP_temperature;BMP_pressure;BME280_temperature;BME280_humidity;BME280_pressure;Samples;Min_cycle;Max_cycle;Signal;HPM_P1;HPM_P2
2021/03/02 00:00:23;;;;;;;23.52;13.35;;;6.20;80.10;;;;;;4993031;28;20084;-88
2021/03/02 00:02:49;;;;;;;23.88;13.90;;;6.30;80.20;;;;;;4990975;28;20065;-85
2021/03/02 00:05:15;;;;;;;27.75;15.32;;;6.20;80.20;;;;;;4991643;28;20058;-87
2021/03/02 00:07:41;;;;;;;23.80;13.50;;;6.20;80.30;;;;;;4990402;28;20060;-87
2021/03/02 00:10:09;;;;;;;28.02;16.67;;;6.20;80.40;;;;;;4991434;28;20034;-85
2021/03/02 00:12:36;;;;;;;25.20;14.15;;;6.20;80.40;;;;;;4991845;28;20030;-85
2021/03/02 00:15:04;;;;;;;26.30;14.10;;;6.20;80.50;;;;;;4991173;28;20026;-86
2021/03/02 00:17:45;;;;;;;25.52;13.63;;;6.20;80.50;;;;;;4992363;28;20145;-84
2021/03/02 00:20:15;;;;;;;23.83;14.05;;;6.20;80.40;;;;;;4991664;28;20038;-86
2021/03/02 00:22:59;;;;;;;23.60;14.25;;;6.20;80.50;;;;;;4991943;28;20026;-87
2021/03/02 00:25:30;;;;;;;24.73;14.38;;;6.10;80.60;;;;;;4991825;28;20539;-87
2021/03/02 00:27:58;;;;;;;23.67;14.02;;;6.10;80.80;;;;;;4992759;28;20034;-85
2021/03/02 00:30:24;;;;;;;25.92;14.55;;;6.10;80.70;;;;;;4991936;28;20053;-87
2021/03/02 00:32:51;;;;;;;26.48;14.02;;;6.10;80.80;;;;;;4991667;28;20504;-87
2021/03/02 00:35:17;;;;;;;23.40;13.50;;;6.00;80.80;;;;;;4990408;28;20033;-87
2021/03/02 00:37:47;;;;;;;24.55;12.68;;;6.10;80.90;;;;;;4991017;28;20517;-87
2021/03/02 00:40:15;;;;;;;25.77;14.70;;;6.00;80.80;;;;;;4991802;28;20026;-86
2021/03/02 00:42:41;;;;;;;21.73;12.55;;;6.10;81.50;;;;;;4991400;28;20029;-86
2021/03/02 00:45:07;;;;;;;23.15;13.40;;;6.00;80.80;;;;;;4991494;28;20052;-86
2021/03/02 00:47:33;;;;;;;26.15;14.52;;;6.00;80.80;;;;;;4992273;28;20523;-86
2021/03/02 00:49:58;;;;;;;24.40;14.70;;;6.00;80.90;;;;;;4991352;28;20117;-86
2021/03/02 00:52:24;;;;;;;28.20;16.10;;;6.00;81.00;;;;;;4990745;28;20038;-85
2021/03/02 00:54:49;;;;;;;26.95;15.27;;;5.90;81.20;;;;;;4991414;28;20026;-86
2021/03/02 00:57:15;;;;;;;29.67;17.08;;;5.90;81.20;;;;;;4994675;28;20022;-86
2021/03/02 00:59:40;;;;;;;27.50;14.57;;;5.90;81.20;;;;;;5006341;28;20049;-86
2021/03/02 01:02:06;;;;;;;26.65;15.30;;;5.90;81.30;;;;;;5000904;28;20045;-86
2021/03/02 01:04:31;;;;;;;30.42;16.17;;;5.80;81.40;;;;;;4991953;28;20018;-84
2021/03/02 01:06:57;;;;;;;25.95;14.68;;;5.80;81.60;;;;;;4992592;28;20026;-85
2021/03/02 01:09:22;;;;;;;28.17;16.13;;;5.80;81.70;;;;;;4995890;28;20026;-86
2021/03/02 01:11:48;;;;;;;28.35;15.80;;;5.80;81.70;;;;;;4994888;28;20250;-86
2021/03/02 01:14:14;;;;;;;29.55;16.15;;;5.70;81.80;;;;;;4994968;28;20105;-84
2021/03/02 01:16:40;;;;;;;25.70;14.77;;;5.70;82.00;;;;;;4995560;28;20026;-85
2021/03/02 01:19:05;;;;;;;27.45;16.13;;;5.70;82.00;;;;;;4995327;28;20048;-84
2021/03/02 01:21:31;;;;;;;31.38;16.70;;;5.70;82.20;;;;;;4994415;28;20034;-85
2021/03/02 01:23:57;;;;;;;22.25;13.57;;;5.60;82.20;;;;;;4993527;28;20023;-84
2021/03/02 01:26:22;;;;;;;23.33;13.43;;;5.60;82.20;;;;;;4994632;28;20033;-84
2021/03/02 01:28:48;;;;;;;27.98;15.93;;;5.70;82.20;;;;;;4993443;28;20041;-84
2021/03/02 01:31:13;;;;;;;23.63;13.98;;;5.60;82.00;;;;;;4994403;28;20053;-84
2021/03/02 01:33:39;;;;;;;23.23;12.77;;;5.60;82.00;;;;;;4993824;28;20045;-83
2021/03/02 01:36:05;;;;;;;22.35;12.32;;;5.70;82.00;;;;;;4994240;28;20033;-84
2021/03/02 01:38:31;;;;;;;22.55;12.57;;;5.70;81.90;;;;;;4993907;28;20042;-85
2021/03/02 01:40:56;;;;;;;23.17;12.80;;;5.70;81.70;;;;;;4994151;28;20026;-85
2021/03/02 01:43:22;;;;;;;27.73;14.50;;;5.70;81.70;;;;;;4993860;28;20704;-84
2021/03/02 01:45:47;;;;;;;25.15;13.98;;;5.70;81.70;;;;;;4993593;28;20026;-84
2021/03/02 01:48:13;;;;;;;23.17;13.23;;;5.70;81.60;;;;;;4994230;28;20026;-86
2021/03/02 01:50:39;;;;;;;25.00;13.70;;;5.60;81.70;;;;;;4993901;28;20050;-86
2021/03/02 01:53:04;;;;;;;24.00;13.52;;;5.60;81.70;;;;;;4993732;28;20045;-86
2021/03/02 01:55:30;;;;;;;24.33;13.82;;;5.60;81.70;;;;;;4993641;28;20440;-85
2021/03/02 01:57:56;;;;;;;22.52;12.75;;;5.60;81.80;;;;;;4994308;28;20432;-86
2021/03/02 02:00:36;;;;;;;18.45;10.43;;;5.60;81.80;;;;;;4994144;28;20085;-86
2021/03/02 02:03:19;;;;;;;30.98;17.65;;;5.60;81.70;;;;;;4993575;28;20026;-86
2021/03/02 02:05:48;;;;;;;24.33;13.40;;;5.50;81.80;;;;;;4993495;28;20117;-85
2021/03/02 02:08:21;;;;;;;20.35;12.38;;;5.50;82.00;;;;;;4994057;28;20054;-86
2021/03/02 02:10:52;;;;;;;;;;;5.50;82.00;;;;;;4994171;28;20047;-87
2021/03/02 02:13:28;;;;;;;23.73;13.23;;;5.60;81.90;;;;;;4993413;28;19928;-87
2021/03/02 02:15:57;;;;;;;22.52;13.05;;;5.50;81.90;;;;;;4991926;28;20036;-86
2021/03/02 02:18:32;;;;;;;26.02;14.75;;;5.50;82.00;;;;;;4992864;28;20069;-87
2021/03/02 02:21:06;;;;;;;23.27;12.63;;;5.50;82.10;;;;;;4994175;28;20014;-86
2021/03/02 02:24:11;;;;;;;24.55;13.30;;;5.50;82.10;;;;;;4993688;28;20027;-84
2021/03/02 02:26:57;;;;;;;26.75;14.73;;;5.40;82.00;;;;;;4993651;28;20029;-86
2021/03/02 02:29:28;;;;;;;22.40;12.32;;;5.40;82.10;;;;;;4992273;28;20069;-87
2021/03/02 02:31:58;;;;;;;21.20;12.38;;;5.40;82.10;;;;;;4994217;28;20030;-86
2021/03/02 02:34:25;;;;;;;20.30;11.85;;;5.40;82.20;;;;;;4996183;28;20123;-86
2021/03/02 02:36:52;;;;;;;20.10;10.40;;;5.40;82.20;;;;;;5007306;28;20022;-87
2021/03/02 02:39:19;;;;;;;20.15;11.35;;;5.40;82.10;;;;;;5005504;28;20038;-86
2021/03/02 02:41:46;;;;;;;18.63;10.77;;;5.40;82.00;;;;;;4997924;28;20050;-86
2021/03/02 02:44:13;;;;;;;23.02;12.52;;;5.40;82.10;;;;;;5006478;28;20022;-87
2021/03/02 02:46:40;;;;;;;25.27;15.52;;;5.40;82.00;;;;;;5007181;28;20030;-87
2021/03/02 02:49:05;;;;;;;24.85;13.65;;;5.40;82.20;;;;;;5008828;28;20034;-85
2021/03/02 02:51:32;;;;;;;21.48;12.60;;;5.40;82.20;;;;;;5005707;28;20405;-87
2021/03/02 02:53:59;;;;;;;25.00;14.70;;;5.40;82.30;;;;;;4992650;28;20058;-87
2021/03/02 02:56:25;;;;;;;21.27;11.98;;;5.40;82.40;;;;;;4994117;28;20081;-86
2021/03/02 02:59:04;;;;;;;21.25;12.30;;;5.40;82.40;;;;;;4993517;28;20022;-87
2021/03/02 03:01:42;;;;;;;20.38;11.50;;;5.40;82.50;;;;;;5001244;28;20026;-87
2021/03/02 03:04:13;;;;;;;23.02;13.55;;;5.40;82.40;;;;;;5007076;28;20023;-87
2021/03/02 03:06:42;;;;;;;23.23;13.98;;;5.40;82.30;;;;;;5009319;28;20033;-87
2021/03/02 03:09:08;;;;;;;22.08;12.30;;;5.40;82.30;;;;;;5007915;28;20058;-88
2021/03/02 03:11:43;;;;;;;28.15;16.02;;;5.30;82.20;;;;;;4994137;28;20057;-87
2021/03/02 03:14:12;;;;;;;29.38;15.60;;;5.30;82.90;;;;;;4992723;28;20505;-87
2021/03/02 03:16:40;;;;;;;23.00;13.02;;;5.30;82.40;;;;;;4994423;28;20487;-87
2021/03/02 03:19:08;;;;;;;22.67;13.07;;;5.30;82.50;;;;;;4993997;28;20023;-88
2021/03/02 03:21:35;;;;;;;18.17;10.18;;;5.30;82.40;;;;;;4992355;28;20026;-87
2021/03/02 03:24:02;;;;;;;28.48;15.70;;;5.30;82.40;;;;;;4992941;28;20199;-87
2021/03/02 03:26:32;;;;;;;21.92;12.93;;;5.20;82.40;;;;;;4993222;28;20037;-87
2021/03/02 03:28:58;;;;;;;26.60;15.73;;;5.20;82.50;;;;;;4975017;28;20086;-87
2021/03/02 03:31:24;;;;;;;22.08;12.07;;;5.20;82.60;;;;;;4975824;28;20034;-87
2021/03/02 03:33:51;;;;;;;25.00;14.13;;;5.20;82.70;;;;;;4992436;28;20034;-87
2021/03/02 03:36:17;;;;;;;26.17;14.00;;;5.20;83.40;;;;;;4991965;28;20018;-87
2021/03/02 03:38:43;;;;;;;19.98;11.13;;;5.10;82.80;;;;;;4992917;28;20440;-87
2021/03/02 03:41:09;;;;;;;21.13;11.75;;;5.20;82.80;;;;;;4992346;28;20030;-85
2021/03/02 03:43:34;;;;;;;21.98;12.77;;;5.20;82.70;;;;;;4988669;28;20042;-87
2021/03/02 03:46:00;;;;;;;26.80;14.48;;;5.10;82.80;;;;;;4987718;28;20026;-89
2021/03/02 03:48:26;;;;;;;28.98;15.50;;;5.20;82.90;;;;;;4993882;28;20050;-88
2021/03/02 03:50:51;;;;;;;29.33;15.45;;;5.10;83.00;;;;;;4999925;28;20093;-88
2021/03/02 03:53:20;;;;;;;22.67;13.18;;;5.10;83.10;;;;;;4993435;28;20050;-87
2021/03/02 03:55:48;;;;;;;23.83;13.48;;;5.10;83.00;;;;;;4992717;28;20101;-87
2021/03/02 03:58:23;;;;;;;26.02;14.50;;;5.10;83.00;;;;;;4993050;28;20065;-86
2021/03/02 04:00:51;;;;;;;28.58;15.57;;;5.10;83.10;;;;;;4993080;28;20030;-88
2021/03/02 04:03:22;;;;;;;23.63;12.48;;;5.10;83.10;;;;;;4992368;28;20023;-87
2021/03/02 04:05:48;;;;;;;26.45;15.27;;;5.10;83.10;;;;;;4992247;28;20026;-88
2021/03/02 04:08:15;;;;;;;21.90;12.88;;;5.00;83.00;;;;;;4992931;28;20019;-88
2021/03/02 04:10:42;;;;;;;21.00;12.65;;;5.00;83.00;;;;;;4993396;28;20022;-89
2021/03/02 04:13:15;;;;;;;22.60;13.35;;;5.10;83.00;;;;;;4995975;28;20097;-88
2021/03/02 04:15:43;;;;;;;23.83;13.63;;;5.10;83.00;;;;;;5011131;28;20058;-88
2021/03/02 04:18:11;;;;;;;22.70;13.55;;;5.00;83.00;;;;;;4997531;28;20469;-88
2021/03/02 04:20:37;;;;;;;23.30;13.15;;;5.00;83.10;;;;;;4993524;28;20022;-87
2021/03/02 04:23:03;;;;;;;23.63;13.30;;;5.00;83.10;;;;;;4991621;28;20030;-88
2021/03/02 04:25:29;;;;;;;21.08;12.13;;;5.00;83.10;;;;;;4993143;28;20022;-87
2021/03/02 04:27:55;;;;;;;23.40;13.75;;;5.00;83.00;;;;;;4993316;28;20061;-88
2021/03/02 04:30:21;;;;;;;20.50;11.68;;;5.00;82.90;;;;;;4993105;28;20470;-88
2021/03/02 04:32:48;;;;;;;25.50;15.32;;;5.00;82.90;;;;;;4992745;28;20045;-89
2021/03/02 04:35:14;;;;;;;27.60;15.95;;;5.00;83.00;;;;;;4992504;28;20068;-89
2021/03/02 04:37:39;;;;;;;25.98;15.25;;;5.00;83.00;;;;;;4992684;28;20129;-88
2021/03/02 04:40:06;;;;;;;23.92;13.48;;;5.00;82.90;;;;;;4992392;28;20115;-88
2021/03/02 04:42:32;;;;;;;22.92;11.35;;;5.00;82.90;;;;;;4998902;28;20022;-87
2021/03/02 04:44:57;;;;;;;20.58;11.95;;;5.00;82.90;;;;;;4996806;28;20026;-89
2021/03/02 04:47:23;;;;;;;22.85;11.90;;;5.00;82.80;;;;;;4996934;28;20061;-88
2021/03/02 04:49:49;;;;;;;17.08;10.30;;;5.10;82.70;;;;;;4996860;28;20042;-86
2021/03/02 04:52:16;;;;;;;17.08;9.65;;;5.10;82.60;;;;;;4996256;28;20516;-86
2021/03/02 04:54:42;;;;;;;18.02;10.48;;;5.10;82.40;;;;;;4975628;28;20153;-86
2021/03/02 04:57:07;;;;;;;22.42;11.52;;;5.10;82.40;;;;;;4988571;28;20115;-86
2021/03/02 04:59:33;;;;;;;18.45;10.43;;;5.10;82.40;;;;;;4996688;28;20089;-87
2021/03/02 05:01:58;;;;;;;20.42;11.50;;;5.10;82.30;;;;;;4996437;28;20030;-87
2021/03/02 05:04:24;;;;;;;24.02;13.05;;;5.10;82.30;;;;;;4996601;28;20555;-88
2021/03/02 05:06:49;;;;;;;21.40;12.57;;;5.10;82.20;;;;;;4996644;28;20090;-88
2021/03/02 05:09:15;;;;;;;19.10;11.93;;;5.10;82.20;;;;;;4996409;28;20034;-87
2021/03/02 05:11:40;;;;;;;21.58;12.45;;;5.10;82.20;;;;;;4996015;28;20470;-88
2021/03/02 05:14:06;;;;;;;19.70;11.32;;;5.10;82.20;;;;;;4994604;28;20121;-88
2021/03/02 05:16:31;;;;;;;23.05;13.68;;;5.00;82.20;;;;;;4995964;28;20053;-88
2021/03/02 05:18:57;;;;;;;23.90;13.27;;;5.10;82.90;;;;;;4995996;28;20019;-88
2021/03/02 05:21:22;;;;;;;23.00;13.15;;;5.00;82.30;;;;;;4995276;28;20030;-88
2021/03/02 05:23:48;;;;;;;26.15;14.30;;;5.00;82.40;;;;;;4995205;28;20029;-88
2021/03/02 05:26:13;;;;;;;24.23;13.45;;;5.00;82.50;;;;;;4995072;28;20076;-85
2021/03/02 05:28:39;;;;;;;22.10;13.52;;;5.00;82.70;;;;;;4995734;28;20053;-88
2021/03/02 05:31:04;;;;;;;20.40;12.25;;;4.90;82.80;;;;;;4995091;28;20041;-85
2021/03/02 05:33:30;;;;;;;30.10;17.60;;;5.00;82.80;;;;;;4975954;28;20509;-86
2021/03/02 05:35:55;;;;;;;24.85;14.63;;;4.90;82.90;;;;;;4974682;28;20022;-88
2021/03/02 05:38:21;;;;;;;25.08;14.07;;;4.90;83.10;;;;;;4993657;28;20027;-83
2021/03/02 05:40:47;;;;;;;26.13;14.52;;;4.90;83.20;;;;;;4995312;28;20018;-86
2021/03/02 05:43:12;;;;;;;22.00;12.88;;;4.90;83.20;;;;;;4978850;28;20030;-88
2021/03/02 05:45:38;;;;;;;24.42;14.38;;;4.90;83.20;;;;;;4975373;28;20031;-86
2021/03/02 05:48:10;;;;;;;19.75;11.48;;;4.90;83.20;;;;;;4990498;28;20444;-87
2021/03/02 05:50:36;;;;;;;23.55;14.57;;;5.00;83.10;;;;;;4998003;28;20022;-88
2021/03/02 05:53:03;;;;;;;23.33;13.95;;;5.00;83.10;;;;;;5007729;28;20030;-87
2021/03/02 05:55:29;;;;;;;24.73;14.38;;;5.00;83.10;;;;;;5006446;28;20094;-87
2021/03/02 05:57:56;;;;;;;19.17;12.00;;;5.00;83.10;;;;;;4995860;28;20027;-85
2021/03/02 06:00:22;;;;;;;23.45;12.93;;;5.00;83.00;;;;;;4993999;28;20033;-86
2021/03/02 06:02:48;;;;;;;25.67;15.45;;;5.00;83.00;;;;;;4995142;28;20109;-83
2021/03/02 06:05:14;;;;;;;22.25;12.73;;;5.10;83.00;;;;;;4994216;28;20500;-85
2021/03/02 06:07:40;;;;;;;22.40;12.95;;;5.10;83.00;;;;;;4993872;28;20018;-88
2021/03/02 06:10:06;;;;;;;20.35;12.98;;;5.10;82.90;;;;;;4995944;28;20073;-87
2021/03/02 06:12:52;;;;;;;23.08;13.65;;;5.10;82.80;;;;;;4995442;28;20022;-86
2021/03/02 06:15:19;;;;;;;20.13;12.77;;;5.10;82.70;;;;;;4994885;28;20450;-88
2021/03/02 06:17:45;;;;;;;21.65;13.32;;;5.10;82.60;;;;;;4994487;28;20018;-87
2021/03/02 06:20:21;;;;;;;24.83;15.65;;;5.20;82.70;;;;;;4995046;28;20341;-86
2021/03/02 06:22:47;;;;;;;22.70;13.07;;;5.20;82.60;;;;;;4995153;28;20026;-87
2021/03/02 06:25:35;;;;;;;24.90;14.60;;;5.20;82.40;;;;;;4993710;28;20026;-87
2021/03/02 06:28:01;;;;;;;23.35;13.35;;;5.20;82.30;;;;;;4994780;28;20494;-87
2021/03/02 06:30:26;;;;;;;18.80;11.60;;;5.20;82.20;;;;;;4994632;28;20041;-86
2021/03/02 06:32:53;;;;;;;20.67;13.07;;;5.20;82.10;;;;;;4995101;28;20038;-87
2021/03/02 06:35:48;;;;;;;24.52;15.23;;;5.30;82.10;;;;;;4993935;28;20377;-85
2021/03/02 06:38:35;;;;;;;19.10;11.90;;;5.20;81.90;;;;;;4981935;28;20038;-87
2021/03/02 06:41:01;;;;;;;17.83;10.73;;;5.30;81.90;;;;;;4994428;28;20081;-86
2021/03/02 06:43:53;;;;;;;19.90;12.30;;;5.30;81.90;;;;;;4989388;28;20045;-90
2021/03/02 06:46:20;;;;;;;20.80;12.57;;;5.20;81.70;;;;;;4980302;28;20036;-88
2021/03/02 06:49:00;;;;;;;24.67;15.10;;;5.30;81.70;;;;;;4988341;28;20037;-96
2021/03/02 06:51:37;;;;;;;19.02;12.00;;;5.30;81.40;;;;;;4990236;28;20509;-95
2021/03/02 06:54:16;;;;;;;20.85;12.48;;;5.30;81.40;;;;;;4985398;28;20034;-96
2021/03/02 06:56:42;;;;;;;22.10;13.93;;;5.30;81.20;;;;;;4990461;28;20077;-95
2021/03/02 06:59:11;;;;;;;21.77;14.07;;;5.40;81.10;;;;;;4997183;28;20030;-95
2021/03/02 07:01:37;;;;;;;21.00;12.82;;;5.40;81.00;;;;;;4998070;28;20485;-94
2021/03/02 07:04:27;;;;;;;21.08;12.95;;;5.40;80.80;;;;;;4998376;28;20037;-93
2021/03/02 07:06:57;;;;;;;19.00;11.73;;;5.50;80.70;;;;;;4985113;28;20011;-91
2021/03/02 07:09:24;;;;;;;19.98;12.63;;;5.50;80.50;;;;;;5012244;28;20045;-92
2021/03/02 07:11:50;;;;;;;18.13;11.95;;;5.80;80.30;;;;;;5015347;28;20044;-92
2021/03/02 07:14:16;;;;;;;22.65;13.05;;;5.70;79.90;;;;;;5004700;28;20054;-93
2021/03/02 07:16:44;;;;;;;17.88;11.30;;;5.80;79.60;;;;;;4984860;28;20470;-94
2021/03/02 07:19:18;;;;;;;17.92;10.43;;;5.80;79.30;;;;;;4990644;28;20031;-94
2021/03/02 07:21:45;;;;;;;;;;;5.90;79.20;;;;;;5002771;28;20030;-95
2021/03/02 07:24:19;;;;;;;21.70;13.05;;;6.00;78.90;;;;;;5007229;28;19917;-96
2021/03/02 07:26:49;;;;;;;17.83;11.00;;;6.00;78.60;;;;;;5002098;28;20030;-87
2021/03/02 07:29:15;;;;;;;18.60;12.05;;;6.00;78.20;;;;;;5017774;28;20022;-93
2021/03/02 07:31:41;;;;;;;19.20;11.70;;;6.10;78.10;;;;;;5015813;28;20018;-94
2021/03/02 07:34:10;;;;;;;16.23;9.25;;;6.20;78.60;;;;;;5006840;28;20034;-94
2021/03/02 07:36:41;;;;;;;17.40;11.00;;;6.20;77.90;;;;;;5009381;28;20037;-95
2021/03/02 07:39:16;;;;;;;20.30;11.93;;;6.30;77.50;;;;;;5000025;28;20060;-87
2021/03/02 07:41:43;;;;;;;20.50;11.75;;;6.50;77.30;;;;;;4992676;28;20536;-88
2021/03/02 07:44:09;;;;;;;16.25;11.00;;;6.50;76.80;;;;;;4993808;28;20592;-90
2021/03/02 07:46:38;;;;;;;16.23;10.07;;;6.60;76.70;;;;;;4999242;28;20026;-93
2021/03/02 07:49:24;;;;;;;17.92;11.20;;;6.60;76.50;;;;;;4994998;28;20038;-91
2021/03/02 07:52:03;;;;;;;17.95;10.63;;;6.70;76.20;;;;;;4990767;28;20034;-91
2021/03/02 07:54:30;;;;;;;18.17;12.77;;;6.70;76.10;;;;;;4994783;28;20038;-89
2021/03/02 07:57:16;;;;;;;13.15;8.63;;;6.80;75.60;;;;;;4993793;28;20053;-93
2021/03/02 08:00:18;;;;;;;18.85;11.18;;;6.90;75.50;;;;;;4995122;28;20053;-90
2021/03/02 08:03:03;;;;;;;14.55;9.45;;;7.00;75.00;;;;;;4983421;28;20031;-92
2021/03/02 08:05:32;;;;;;;13.93;9.00;;;7.10;74.90;;;;;;4992036;28;20033;-92
2021/03/02 08:08:28;;;;;;;18.10;11.70;;;7.20;74.80;;;;;;4978613;28;20508;-89
2021/03/02 08:11:20;;;;;;;17.98;10.80;;;7.20;74.30;;;;;;4999982;28;20105;-90
2021/03/02 08:13:47;;;;;;;15.65;9.70;;;7.30;74.10;;;;;;4985905;28;20034;-94
2021/03/02 08:16:14;;;;;;;15.82;10.10;;;7.30;73.80;;;;;;4998840;28;20034;-96
2021/03/02 08:18:44;;;;;;;16.20;10.40;;;7.40;73.70;;;;;;4995707;28;20552;-93
2021/03/02 08:21:11;;;;;;;16.17;10.35;;;7.50;73.20;;;;;;4987062;28;20039;-91
2021/03/02 08:24:04;;;;;;;14.57;9.15;;;7.50;72.90;;;;;;4975040;28;20023;-90
2021/03/02 08:26:32;;;;;;;13.40;9.25;;;7.50;73.00;;;;;;4984242;28;20089;-95
2021/03/02 08:29:10;;;;;;;14.35;9.02;;;7.60;72.80;;;;;;4998875;28;20031;-91
2021/03/02 08:31:38;;;;;;;17.08;10.77;;;7.70;72.70;;;;;;5002086;28;20049;-94
2021/03/02 08:34:05;;;;;;;16.20;10.77;;;7.70;72.00;;;;;;4998547;28;20026;-92
2021/03/02 08:36:32;;;;;;;15.85;10.15;;;7.70;71.50;;;;;;5001954;28;20057;-93
2021/03/02 08:38:58;;;;;;;14.98;9.50;;;7.70;71.50;;;;;;4998787;28;20030;-93
2021/03/02 08:41:44;;;;;;;16.33;10.43;;;7.80;71.80;;;;;;4990615;28;20536;-92
2021/03/02 08:44:20;;;;;;;15.23;9.93;;;7.90;71.40;;;;;;4995687;28;20022;-95
2021/03/02 08:46:58;;;;;;;14.95;9.85;;;7.90;71.40;;;;;;4998044;28;20088;-93
2021/03/02 08:49:31;;;;;;;16.30;10.68;;;8.00;71.30;;;;;;4994557;28;20038;-94
2021/03/02 08:52:01;;;;;;;14.65;9.70;;;8.00;70.70;;;;;;4993043;28;20054;-89
2021/03/02 08:54:28;;;;;;;17.25;11.18;;;8.10;70.50;;;;;;4991300;28;20084;-90
2021/03/02 08:57:04;;;;;;;16.00;10.02;;;8.10;69.90;;;;;;4992945;28;20038;-94
2021/03/02 08:59:30;;;;;;;12.75;8.63;;;8.10;70.20;;;;;;4993526;28;20092;-94
2021/03/02 09:01:56;;;;;;;13.10;8.75;;;8.20;70.20;;;;;;4996328;28;20313;-95
2021/03/02 09:04:24;;;;;;;15.75;9.82;;;8.30;70.20;;;;;;5013223;28;20052;-90
2021/03/02 09:06:52;;;;;;;13.07;8.32;;;8.40;69.90;;;;;;5012242;28;20073;-91
2021/03/02 09:09:21;;;;;;;13.93;9.18;;;8.50;69.70;;;;;;4999621;28;20046;-93
2021/03/02 09:11:52;;;;;;;15.80;10.18;;;8.60;69.40;;;;;;4996655;28;20477;-89
2021/03/02 09:14:25;;;;;;;13.05;8.60;;;8.70;68.20;;;;;;4995373;28;20076;-93
2021/03/02 09:16:53;;;;;;;14.48;8.63;;;8.70;68.50;;;;;;4998272;28;20026;-89
2021/03/02 09:19:20;;;;;;;12.75;8.52;;;8.80;68.30;;;;;;4996486;28;20026;-94
2021/03/02 09:21:51;;;;;;;13.63;9.07;;;8.90;68.30;;;;;;4994780;28;20033;-90
2021/03/02 09:24:19;;;;;;;10.75;7.68;;;9.00;68.00;;;;;;4990041;28;20037;-88
2021/03/02 09:26:50;;;;;;;12.85;7.82;;;9.10;67.60;;;;;;4990731;28;20497;-93
2021/03/02 09:29:27;;;;;;;12.73;8.80;;;9.20;67.40;;;;;;5002617;28;20054;-93
2021/03/02 09:31:56;;;;;;;14.23;9.30;;;9.30;67.00;;;;;;4997682;28;20038;-89
2021/03/02 09:34:32;;;;;;;13.75;8.73;;;9.40;66.00;;;;;;4996754;28;20053;-88
2021/03/02 09:37:03;;;;;;;12.27;8.18;;;9.40;65.10;;;;;;5000874;28;20084;-93
2021/03/02 09:39:31;;;;;;;11.63;7.63;;;9.50;65.10;;;;;;4988388;28;20031;-89
2021/03/02 09:41:56;;;;;;;15.27;10.32;;;9.60;65.40;;;;;;4998176;28;20114;-88
2021/03/02 09:44:29;;;;;;;11.80;8.32;;;9.60;64.90;;;;;;4998962;28;20045;-91
2021/03/02 09:46:57;;;;;;;13.65;9.52;;;9.70;65.40;;;;;;5002841;28;20025;-89
2021/03/02 09:49:47;;;;;;;12.52;8.20;;;9.70;64.70;;;;;;4984415;28;20026;-89
2021/03/02 09:52:36;;;;;;;16.25;9.73;;;9.70;64.90;;;;;;4994636;28;20525;-89
2021/03/02 09:55:24;;;;;;;12.98;8.80;;;9.70;64.90;;;;;;4998432;28;20026;-92
2021/03/02 09:57:57;;;;;;;11.20;7.80;;;9.80;65.20;;;;;;4996351;28;20058;-90
2021/03/02 10:00:27;;;;;;;;;;;9.90;65.40;;;;;;4998700;28;20027;-93
2021/03/02 10:03:07;;;;;;;15.25;9.50;;;9.90;65.20;;;;;;5006461;28;19894;-89
2021/03/02 10:05:52;;;;;;;16.33;10.93;;;9.90;65.30;;;;;;5009831;28;20014;-89
2021/03/02 10:08:38;;;;;;;15.50;9.93;;;9.90;65.20;;;;;;5016556;28;20030;-90
2021/03/02 10:11:13;;;;;;;11.40;6.82;;;9.90;64.40;;;;;;5015435;28;20029;-95
2021/03/02 10:13:39;;;;;;;15.38;9.95;;;10.00;65.10;;;;;;4999759;28;20034;-90
2021/03/02 10:16:29;;;;;;;14.43;9.48;;;10.10;64.70;;;;;;4996599;28;20033;-90
2021/03/02 10:18:56;;;;;;;12.70;7.88;;;10.20;64.60;;;;;;5008185;28;20018;-91
2021/03/02 10:21:24;;;;;;;11.95;8.68;;;10.30;65.00;;;;;;5018138;28;20027;-91
2021/03/02 10:23:52;;;;;;;13.60;9.45;;;10.30;64.80;;;;;;5017729;28;20022;-89
2021/03/02 10:26:33;;;;;;;12.88;9.15;;;10.30;64.50;;;;;;5009604;28;20106;-88
2021/03/02 10:28:59;;;;;;;16.00;11.07;;;10.30;64.50;;;;;;4997797;28;20023;-90
2021/03/02 10:31:26;;;;;;;13.05;9.68;;;10.30;64.50;;;;;;4996214;28;20018;-90
2021/03/02 10:33:52;;;;;;;17.73;11.32;;;10.30;64.80;;;;;;4988384;28;20049;-91
2021/03/02 10:36:26;;;;;;;15.20;10.15;;;10.40;65.00;;;;;;4995828;28;20029;-87
2021/03/02 10:38:54;;;;;;;17.55;11.43;;;10.50;64.50;;;;;;5001093;28;20090;-87
2021/03/02 10:41:20;;;;;;;14.98;9.82;;;10.50;64.20;;;;;;5013358;28;20022;-88
2021/03/02 10:43:48;;;;;;;17.83;11.57;;;10.60;64.60;;;;;;4995535;28;20025;-87
2021/03/02 10:46:14;;;;;;;13.68;8.65;;;10.70;64.50;;;;;;4986139;28;20080;-90
2021/03/02 10:48:40;;;;;;;12.98;8.85;;;10.80;64.80;;;;;;4992939;28;20397;-88
2021/03/02 10:51:15;;;;;;;13.98;8.88;;;10.80;64.50;;;;;;4994711;28;20023;-86
2021/03/02 10:53:41;;;;;;;9.43;6.88;;;10.90;64.70;;;;;;4991147;28;20141;-86
2021/03/02 10:56:06;;;;;;;14.90;8.75;;;11.10;64.70;;;;;;4976381;28;20015;-89
2021/03/02 10:58:38;;;;;;;12.77;8.90;;;11.20;64.30;;;;;;4993743;28;20376;-89
2021/03/02 11:01:04;;;;;;;14.48;9.65;;;11.30;64.40;;;;;;4991931;28;20527;-90
2021/03/02 11:03:31;;;;;;;12.43;8.50;;;11.40;63.70;;;;;;4994835;28;20026;-89
2021/03/02 11:05:56;;;;;;;8.73;6.88;;;11.40;63.90;;;;;;4993779;28;20029;-90
2021/03/02 11:08:28;;;;;;;10.00;6.78;;;11.70;63.90;;;;;;4994203;28;20022;-89
2021/03/02 11:10:54;;;;;;;11.47;8.53;;;11.70;63.70;;;;;;4993690;28;20022;-88
2021/03/02 11:13:19;;;;;;;9.52;6.55;;;11.80;63.50;;;;;;4993087;28;20345;-92
2021/03/02 11:15:46;;;;;;;11.77;8.85;;;11.90;63.60;;;;;;4993505;28;20026;-94
2021/03/02 11:18:14;;;;;;;14.20;8.95;;;11.90;62.80;;;;;;4995809;28;20117;-93
2021/03/02 11:20:44;;;;;;;11.25;8.20;;;11.90;62.90;;;;;;4997220;28;20026;-95
2021/03/02 11:23:11;;;;;;;11.55;8.30;;;12.10;62.90;;;;;;4995424;28;20037;-95
2021/03/02 11:25:37;;;;;;;14.27;8.57;;;12.20;61.90;;;;;;4996136;28;20636;-94
2021/03/02 11:28:03;;;;;;;11.25;7.30;;;12.20;60.80;;;;;;4999118;28;20029;-92
2021/03/02 11:30:30;;;;;;;10.18;7.28;;;12.30;61.20;;;;;;4997009;28;20031;-93
2021/03/02 11:32:56;;;;;;;11.98;7.93;;;12.40;60.60;;;;;;4998687;28;20113;-94
2021/03/02 11:35:21;;;;;;;11.48;8.02;;;12.40;60.30;;;;;;4995297;28;20057;-93
2021/03/02 11:37:47;;;;;;;11.50;7.55;;;12.50;60.10;;;;;;4996125;28;20030;-93
2021/03/02 11:40:16;;;;;;;10.55;7.13;;;12.60;58.90;;;;;;4995872;28;20054;-93
2021/03/02 11:42:46;;;;;;;12.13;7.38;;;12.70;58.70;;;;;;4996302;28;20563;-93
2021/03/02 11:45:13;;;;;;;9.35;6.35;;;12.80;57.50;;;;;;4996766;28;20034;-93
2021/03/02 11:47:39;;;;;;;8.15;5.45;;;12.90;57.90;;;;;;4998246;28;20026;-94
2021/03/02 11:50:07;;;;;;;11.27;7.38;;;13.10;58.10;;;;;;4996007;28;20021;-95
2021/03/02 11:52:36;;;;;;;10.32;7.18;;;13.20;57.40;;;;;;4997271;28;20138;-93
2021/03/02 11:55:06;;;;;;;11.90;6.93;;;13.20;56.80;;;;;;4995212;28;20026;-93
2021/03/02 11:57:33;;;;;;;9.57;6.47;;;13.30;56.00;;;;;;4984555;28;20014;-95
2021/03/02 11:59:58;;;;;;;9.90;6.55;;;13.40;56.60;;;;;;4987519;28;20125;-93
2021/03/02 12:02:34;;;;;;;8.48;5.63;;;13.40;56.00;;;;;;4994905;28;20050;-92
2021/03/02 12:05:00;;;;;;;9.02;5.93;;;13.60;56.50;;;;;;4993097;28;20026;-91
2021/03/02 12:07:25;;;;;;;7.80;5.30;;;13.60;56.70;;;;;;4984154;28;20018;-91
2021/03/02 12:10:06;;;;;;;12.27;7.70;;;13.80;56.60;;;;;;4992559;28;20100;-90
2021/03/02 12:12:32;;;;;;;11.65;7.20;;;13.80;54.60;;;;;;5000215;28;20034;-91
2021/03/02 12:14:58;;;;;;;12.13;7.50;;;13.80;54.40;;;;;;5006109;28;20010;-92
2021/03/02 12:17:23;;;;;;;11.95;7.20;;;13.90;54.10;;;;;;4999650;28;20185;-93
2021/03/02 12:19:49;;;;;;;12.38;7.85;;;13.90;53.80;;;;;;4998264;28;20520;-96
2021/03/02 12:22:14;;;;;;;10.18;7.15;;;14.00;53.70;;;;;;4996081;28;20101;-93
2021/03/02 12:24:40;;;;;;;11.23;7.53;;;14.00;53.90;;;;;;4999928;28;20062;-94
2021/03/02 12:27:06;;;;;;;10.32;5.63;;;14.20;54.20;;;;;;4992834;28;20022;-96
2021/03/02 12:29:31;;;;;;;11.57;8.15;;;14.40;53.80;;;;;;4997348;28;20018;-95
2021/03/02 12:31:57;;;;;;;12.30;7.20;;;14.30;52.90;;;;;;4988986;28;20089;-94
2021/03/02 12:34:26;;;;;;;9.60;6.40;;;14.40;53.20;;;;;;4989555;28;20481;-93
2021/03/02 12:36:54;;;;;;;10.00;6.65;;;14.50;53.50;;;;;;5005033;28;20129;-95
2021/03/02 12:39:19;;;;;;;9.85;6.32;;;14.70;53.20;;;;;;4985378;28;20038;-91
2021/03/02 12:41:45;;;;;;;10.38;7.20;;;14.80;53.20;;;;;;4989840;28;20027;-91
2021/03/02 12:44:16;;;;;;;10.27;5.93;;;14.80;52.10;;;;;;4989647;28;20049;-96
2021/03/02 12:46:42;;;;;;;21.17;8.85;;;14.90;52.50;;;;;;4996402;28;20469;-90
2021/03/02 12:49:08;;;;;;;14.30;8.63;;;14.90;51.60;;;;;;4992825;28;20025;-91